sensor_id;sensor_type;location;lat;lon;timestamp;P1;durP1;ratioP1;P2;durP2;ratioP2
13733;SDS011;43298;52.560;13.508;2023-08-21T00:01:21;4.05;;;3.55;;
13733;SDS011;43298;52.560;13.508;2023-08-21T00:03:47;5.50;;;3.25;;
13733;SDS011;43298;52.560;13.508;2023-08-21T00:06:13;5.60;;;3.85;;
13733;SDS011;43298;52.560;13.508;2023-08-21T00:08:38;3.83;;;3.00;;
13733;SDS011;43298;52.560;13.508;2023-08-21T00:11:04;5.00;;;3.60;;
13733;SDS011;43298;52.560;13.508;2023-08-21T00:13:30;5.60;;;3.30;;
13733;SDS011;43298;52.560;13.508;2023-08-21T00:15:56;5.85;;;4.03;;
13733;SDS011;43298;52.560;13.508;2023-08-21T00:18:22;5.05;;;3.65;;
13733;SDS011;43298;52.560;13.508;2023-08-21T00:20:48;7.95;;;3.55;;
13733;SDS011;43298;52.560;13.508;2023-08-21T00:23:13;5.47;;;3.83;;
13733;SDS011;43298;52.560;13.508;2023-08-21T00:25:39;5.68;;;3.58;;
13733;SDS011;43298;52.560;13.508;2023-08-21T00:28:07;5.35;;;4.13;;
13733;SDS011;43298;52.560;13.508;2023-08-21T00:30:32;3.92;;;3.53;;
13733;SDS011;43298;52.560;13.508;2023-08-21T00:32:58;7.20;;;3.67;;
13733;SDS011;43298;52.560;13.508;2023-08-21T00:35:24;6.00;;;4.07;;
13733;SDS011;43298;52.560;13.508;2023-08-21T00:37:50;4.43;;;3.95;;
13733;SDS011;43298;52.560;13.508;2023-08-21T00:40:15;5.82;;;3.83;;
13733;SDS011;43298;52.560;13.508;2023-08-21T00:42:42;5.70;;;3.95;;
13733;SDS011;43298;52.560;13.508;2023-08-21T00:45:07;5.05;;;3.63;;
13733;SDS011;43298;52.560;13.508;2023-08-21T00:47:34;7.95;;;3.47;;
13733;SDS011;43298;52.560;13.508;2023-08-21T00:50:01;5.32;;;4.43;;
13733;SDS011;43298;52.560;13.508;2023-08-21T00:52:27;4.95;;;3.75;;
13733;SDS011;43298;52.560;13.508;2023-08-21T00:54:54;6.72;;;4.05;;
13733;SDS011;43298;52.560;13.508;2023-08-21T00:57:20;7.03;;;3.80;;
13733;SDS011;43298;52.560;13.508;2023-08-21T00:59:47;6.32;;;3.83;;
13733;SDS011;43298;52.560;13.508;2023-08-21T01:02:13;5.07;;;3.42;;
13733;SDS011;43298;52.560;13.508;2023-08-21T01:04:39;4.47;;;3.53;;
13733;SDS011;43298;52.560;13.508;2023-08-21T01:07:05;5.15;;;3.25;;
13733;SDS011;43298;52.560;13.508;2023-08-21T01:15:45;4.40;;;3.50;;
13733;SDS011;43298;52.560;13.508;2023-08-21T01:18:12;6.95;;;3.42;;
13733;SDS011;43298;52.560;13.508;2023-08-21T01:20:40;4.40;;;3.30;;
13733;SDS011;43298;52.560;13.508;2023-08-21T01:23:06;5.78;;;3.65;;
13733;SDS011;43298;52.560;13.508;2023-08-21T01:25:32;5.93;;;3.67;;
13733;SDS011;43298;52.560;13.508;2023-08-21T01:27:58;3.90;;;3.50;;
13733;SDS011;43298;52.560;13.508;2023-08-21T01:30:25;4.13;;;3.72;;
13733;SDS011;43298;52.560;13.508;2023-08-21T01:33:08;7.05;;;3.95;;
13733;SDS011;43298;52.560;13.508;2023-08-21T01:35:38;8.25;;;3.92;;
13733;SDS011;43298;52.560;13.508;2023-08-21T01:38:04;4.15;;;3.42;;
13733;SDS011;43298;52.560;13.508;2023-08-21T01:40:31;5.07;;;3.67;;
13733;SDS011;43298;52.560;13.508;2023-08-21T01:42:57;6.60;;;3.75;;
13733;SDS011;43298;52.560;13.508;2023-08-21T01:45:22;4.93;;;3.38;;
13733;SDS011;43298;52.560;13.508;2023-08-21T01:47:48;5.18;;;3.85;;
13733;SDS011;43298;52.560;13.508;2023-08-21T01:50:14;5.43;;;4.10;;
13733;SDS011;43298;52.560;13.508;2023-08-21T01:52:40;5.15;;;3.85;;
13733;SDS011;43298;52.560;13.508;2023-08-21T01:55:06;5.13;;;3.78;;
13733;SDS011;43298;52.560;13.508;2023-08-21T01:57:35;5.00;;;3.35;;
13733;SDS011;43298;52.560;13.508;2023-08-21T02:00:01;5.68;;;3.35;;
13733;SDS011;43298;52.560;13.508;2023-08-21T02:02:32;4.22;;;3.80;;
13733;SDS011;43298;52.560;13.508;2023-08-21T02:04:57;5.60;;;3.70;;
13733;SDS011;43298;52.560;13.508;2023-08-21T02:07:23;4.32;;;3.65;;
13733;SDS011;43298;52.560;13.508;2023-08-21T02:09:49;5.50;;;3.50;;
13733;SDS011;43298;52.560;13.508;2023-08-21T02:12:15;5.53;;;3.97;;
13733;SDS011;43298;52.560;13.508;2023-08-21T02:14:41;9.60;;;4.35;;
13733;SDS011;43298;52.560;13.508;2023-08-21T02:17:06;5.75;;;3.95;;
13733;SDS011;43298;52.560;13.508;2023-08-21T02:19:32;5.50;;;3.67;;
13733;SDS011;43298;52.560;13.508;2023-08-21T02:21:58;4.22;;;3.40;;
13733;SDS011;43298;52.560;13.508;2023-08-21T02:24:24;4.75;;;3.83;;
13733;SDS011;43298;52.560;13.508;2023-08-21T02:26:50;7.07;;;3.38;;
13733;SDS011;43298;52.560;13.508;2023-08-21T02:29:15;5.63;;;3.72;;
13733;SDS011;43298;52.560;13.508;2023-08-21T02:31:41;5.97;;;4.32;;
13733;SDS011;43298;52.560;13.508;2023-08-21T02:34:07;4.97;;;3.67;;
13733;SDS011;43298;52.560;13.508;2023-08-21T02:36:33;7.53;;;4.53;;
13733;SDS011;43298;52.560;13.508;2023-08-21T02:38:59;4.30;;;3.60;;
13733;SDS011;43298;52.560;13.508;2023-08-21T02:41:24;4.07;;;3.67;;
13733;SDS011;43298;52.560;13.508;2023-08-21T02:43:50;4.15;;;3.00;;
13733;SDS011;43298;52.560;13.508;2023-08-21T02:46:16;5.93;;;3.33;;
13733;SDS011;43298;52.560;13.508;2023-08-21T02:48:42;6.35;;;3.25;;
13733;SDS011;43298;52.560;13.508;2023-08-21T02:51:08;4.25;;;3.55;;
13733;SDS011;43298;52.560;13.508;2023-08-21T02:53:34;6.30;;;3.30;;
13733;SDS011;43298;52.560;13.508;2023-08-21T02:56:00;5.13;;;3.45;;
13733;SDS011;43298;52.560;13.508;2023-08-21T02:58:25;3.35;;;2.70;;
13733;SDS011;43298;52.560;13.508;2023-08-21T03:00:51;3.33;;;2.70;;
13733;SDS011;43298;52.560;13.508;2023-08-21T03:03:17;4.75;;;2.80;;
13733;SDS011;43298;52.560;13.508;2023-08-21T03:05:43;5.30;;;3.15;;
13733;SDS011;43298;52.560;13.508;2023-08-21T03:08:09;4.80;;;3.03;;
13733;SDS011;43298;52.560;13.508;2023-08-21T03:10:34;7.32;;;3.13;;
13733;SDS011;43298;52.560;13.508;2023-08-21T03:13:02;5.43;;;2.88;;
13733;SDS011;43298;52.560;13.508;2023-08-21T03:15:28;5.20;;;3.15;;
13733;SDS011;43298;52.560;13.508;2023-08-21T03:17:54;3.88;;;3.15;;
13733;SDS011;43298;52.560;13.508;2023-08-21T03:20:20;4.22;;;3.00;;
13733;SDS011;43298;52.560;13.508;2023-08-21T03:22:46;4.45;;;3.53;;
13733;SDS011;43298;52.560;13.508;2023-08-21T03:25:12;3.55;;;2.88;;
13733;SDS011;43298;52.560;13.508;2023-08-21T03:27:38;4.47;;;2.60;;
13733;SDS011;43298;52.560;13.508;2023-08-21T03:30:05;6.80;;;3.20;;
13733;SDS011;43298;52.560;13.508;2023-08-21T03:32:32;5.85;;;3.30;;
13733;SDS011;43298;52.560;13.508;2023-08-21T03:34:58;3.90;;;3.08;;
13733;SDS011;43298;52.560;13.508;2023-08-21T03:37:24;4.80;;;3.47;;
13733;SDS011;43298;52.560;13.508;2023-08-21T03:39:50;2.92;;;2.63;;
13733;SDS011;43298;52.560;13.508;2023-08-21T03:42:16;6.38;;;3.45;;
13733;SDS011;43298;52.560;13.508;2023-08-21T03:44:41;5.57;;;3.17;;
13733;SDS011;43298;52.560;13.508;2023-08-21T03:47:07;3.65;;;3.00;;
13733;SDS011;43298;52.560;13.508;2023-08-21T03:49:33;5.00;;;3.03;;
13733;SDS011;43298;52.560;13.508;2023-08-21T03:51:59;4.35;;;3.50;;
13733;SDS011;43298;52.560;13.508;2023-08-21T03:54:25;4.97;;;3.45;;
13733;SDS011;43298;52.560;13.508;2023-08-21T03:56:51;4.50;;;3.88;;
13733;SDS011;43298;52.560;13.508;2023-08-21T03:59:16;4.05;;;3.00;;
13733;SDS011;43298;52.560;13.508;2023-08-21T04:01:42;4.07;;;3.30;;
13733;SDS011;43298;52.560;13.508;2023-08-21T04:04:08;3.97;;;2.60;;
13733;SDS011;43298;52.560;13.508;2023-08-21T04:06:34;5.45;;;3.38;;
13733;SDS011;43298;52.560;13.508;2023-08-21T04:09:00;3.97;;;2.83;;
13733;SDS011;43298;52.560;13.508;2023-08-21T04:11:26;4.15;;;3.40;;
13733;SDS011;43298;52.560;13.508;2023-08-21T04:13:53;4.20;;;3.38;;
13733;SDS011;43298;52.560;13.508;2023-08-21T04:16:19;5.47;;;3.60;;
13733;SDS011;43298;52.560;13.508;2023-08-21T04:18:46;7.82;;;3.30;;
13733;SDS011;43298;52.560;13.508;2023-08-21T04:21:12;4.15;;;3.35;;
13733;SDS011;43298;52.560;13.508;2023-08-21T04:23:38;3.97;;;2.83;;
13733;SDS011;43298;52.560;13.508;2023-08-21T04:26:03;4.68;;;3.17;;
13733;SDS011;43298;52.560;13.508;2023-08-21T04:28:30;4.43;;;3.47;;
13733;SDS011;43298;52.560;13.508;2023-08-21T04:30:57;5.22;;;3.05;;
13733;SDS011;43298;52.560;13.508;2023-08-21T04:33:24;3.65;;;2.67;;
13733;SDS011;43298;52.560;13.508;2023-08-21T04:35:51;6.35;;;2.75;;
13733;SDS011;43298;52.560;13.508;2023-08-21T04:38:17;3.33;;;3.00;;
13733;SDS011;43298;52.560;13.508;2023-08-21T04:40:43;3.80;;;3.10;;
13733;SDS011;43298;52.560;13.508;2023-08-21T04:43:09;3.53;;;2.90;;
13733;SDS011;43298;52.560;13.508;2023-08-21T04:45:34;2.80;;;2.50;;
13733;SDS011;43298;52.560;13.508;2023-08-21T04:48:02;4.07;;;2.90;;
13733;SDS011;43298;52.560;13.508;2023-08-21T04:50:31;6.03;;;3.45;;
13733;SDS011;43298;52.560;13.508;2023-08-21T04:52:57;4.05;;;3.10;;
13733;SDS011;43298;52.560;13.508;2023-08-21T04:55:23;4.15;;;2.65;;
13733;SDS011;43298;52.560;13.508;2023-08-21T04:57:49;4.50;;;3.08;;
13733;SDS011;43298;52.560;13.508;2023-08-21T05:00:15;3.38;;;2.63;;
13733;SDS011;43298;52.560;13.508;2023-08-21T05:02:41;4.28;;;3.08;;
13733;SDS011;43298;52.560;13.508;2023-08-21T05:05:07;3.80;;;3.15;;
13733;SDS011;43298;52.560;13.508;2023-08-21T05:07:34;3.30;;;2.97;;
13733;SDS011;43298;52.560;13.508;2023-08-21T05:10:00;5.43;;;3.00;;
13733;SDS011;43298;52.560;13.508;2023-08-21T05:12:27;3.50;;;2.70;;
13733;SDS011;43298;52.560;13.508;2023-08-21T05:14:52;3.85;;;2.65;;
13733;SDS011;43298;52.560;13.508;2023-08-21T05:17:19;2.40;;;2.15;;
13733;SDS011;43298;52.560;13.508;2023-08-21T05:19:45;4.53;;;2.75;;
13733;SDS011;43298;52.560;13.508;2023-08-21T05:22:11;2.53;;;2.30;;
13733;SDS011;43298;52.560;13.508;2023-08-21T05:24:37;3.08;;;2.40;;
13733;SDS011;43298;52.560;13.508;2023-08-21T05:27:03;3.97;;;2.50;;
13733;SDS011;43298;52.560;13.508;2023-08-21T05:29:29;4.55;;;2.53;;
13733;SDS011;43298;52.560;13.508;2023-08-21T05:31:55;2.95;;;2.63;;
13733;SDS011;43298;52.560;13.508;2023-08-21T05:34:21;2.47;;;2.28;;
13733;SDS011;43298;52.560;13.508;2023-08-21T05:36:47;4.00;;;2.38;;
13733;SDS011;43298;52.560;13.508;2023-08-21T05:39:13;4.18;;;3.42;;
13733;SDS011;43298;52.560;13.508;2023-08-21T05:41:39;4.70;;;2.97;;
13733;SDS011;43298;52.560;13.508;2023-08-21T05:44:05;4.03;;;2.33;;
13733;SDS011;43298;52.560;13.508;2023-08-21T05:46:30;5.28;;;2.85;;
13733;SDS011;43298;52.560;13.508;2023-08-21T05:48:56;4.40;;;3.00;;
13733;SDS011;43298;52.560;13.508;2023-08-21T05:51:22;3.28;;;2.75;;
13733;SDS011;43298;52.560;13.508;2023-08-21T05:53:48;2.47;;;2.28;;
13733;SDS011;43298;52.560;13.508;2023-08-21T05:56:14;4.03;;;2.45;;
13733;SDS011;43298;52.560;13.508;2023-08-21T05:58:39;3.67;;;2.83;;
13733;SDS011;43298;52.560;13.508;2023-08-21T06:01:05;3.75;;;2.85;;
13733;SDS011;43298;52.560;13.508;2023-08-21T06:03:31;5.60;;;3.28;;
13733;SDS011;43298;52.560;13.508;2023-08-21T06:05:57;2.55;;;2.35;;
13733;SDS011;43298;52.560;13.508;2023-08-21T06:08:23;3.40;;;2.40;;
13733;SDS011;43298;52.560;13.508;2023-08-21T06:10:52;5.18;;;2.83;;
13733;SDS011;43298;52.560;13.508;2023-08-21T06:13:18;3.83;;;3.38;;
13733;SDS011;43298;52.560;13.508;2023-08-21T06:15:44;3.60;;;2.40;;
13733;SDS011;43298;52.560;13.508;2023-08-21T06:18:10;3.65;;;2.75;;
13733;SDS011;43298;52.560;13.508;2023-08-21T06:20:36;6.10;;;2.38;;
13733;SDS011;43298;52.560;13.508;2023-08-21T06:23:02;3.28;;;2.15;;
13733;SDS011;43298;52.560;13.508;2023-08-21T06:25:28;4.13;;;2.63;;
13733;SDS011;43298;52.560;13.508;2023-08-21T06:27:55;3.92;;;3.45;;
13733;SDS011;43298;52.560;13.508;2023-08-21T06:30:21;5.43;;;2.95;;
13733;SDS011;43298;52.560;13.508;2023-08-21T06:32:47;2.97;;;2.45;;
13733;SDS011;43298;52.560;13.508;2023-08-21T06:35:14;4.38;;;3.15;;
13733;SDS011;43298;52.560;13.508;2023-08-21T06:37:41;3.17;;;2.72;;
13733;SDS011;43298;52.560;13.508;2023-08-21T06:40:07;5.72;;;3.08;;
13733;SDS011;43298;52.560;13.508;2023-08-21T06:42:33;4.78;;;2.80;;
13733;SDS011;43298;52.560;13.508;2023-08-21T06:44:59;6.88;;;3.53;;
13733;SDS011;43298;52.560;13.508;2023-08-21T06:47:25;4.38;;;3.17;;
13733;SDS011;43298;52.560;13.508;2023-08-21T06:49:51;3.55;;;2.97;;
13733;SDS011;43298;52.560;13.508;2023-08-21T06:52:17;3.58;;;2.92;;
13733;SDS011;43298;52.560;13.508;2023-08-21T06:54:43;5.30;;;3.10;;
13733;SDS011;43298;52.560;13.508;2023-08-21T06:57:08;4.00;;;2.90;;
13733;SDS011;43298;52.560;13.508;2023-08-21T06:59:34;5.03;;;2.70;;
13733;SDS011;43298;52.560;13.508;2023-08-21T07:02:01;3.90;;;3.08;;
13733;SDS011;43298;52.560;13.508;2023-08-21T07:04:28;4.07;;;2.60;;
13733;SDS011;43298;52.560;13.508;2023-08-21T07:06:53;3.90;;;3.08;;
13733;SDS011;43298;52.560;13.508;2023-08-21T07:09:19;4.07;;;2.97;;
13733;SDS011;43298;52.560;13.508;2023-08-21T07:11:45;7.25;;;2.78;;
13733;SDS011;43298;52.560;13.508;2023-08-21T07:14:11;4.93;;;3.15;;
13733;SDS011;43298;52.560;13.508;2023-08-21T07:16:39;5.38;;;3.03;;
13733;SDS011;43298;52.560;13.508;2023-08-21T07:19:05;4.00;;;2.85;;
13733;SDS011;43298;52.560;13.508;2023-08-21T07:21:31;4.22;;;2.85;;
13733;SDS011;43298;52.560;13.508;2023-08-21T07:23:59;4.13;;;2.90;;
13733;SDS011;43298;52.560;13.508;2023-08-21T07:26:25;3.83;;;2.65;;
13733;SDS011;43298;52.560;13.508;2023-08-21T07:28:51;3.08;;;2.45;;
13733;SDS011;43298;52.560;13.508;2023-08-21T07:31:19;3.22;;;2.45;;
13733;SDS011;43298;52.560;13.508;2023-08-21T07:33:45;3.78;;;2.38;;
13733;SDS011;43298;52.560;13.508;2023-08-21T07:36:11;2.47;;;2.05;;
13733;SDS011;43298;52.560;13.508;2023-08-21T07:38:41;2.40;;;1.95;;
13733;SDS011;43298;52.560;13.508;2023-08-21T07:41:09;6.03;;;2.25;;
13733;SDS011;43298;52.560;13.508;2023-08-21T07:43:37;2.45;;;1.92;;
13733;SDS011;43298;52.560;13.508;2023-08-21T07:46:06;4.25;;;2.20;;
13733;SDS011;43298;52.560;13.508;2023-08-21T07:48:38;8.18;;;2.22;;
13733;SDS011;43298;52.560;13.508;2023-08-21T07:51:04;2.67;;;1.85;;
13733;SDS011;43298;52.560;13.508;2023-08-21T07:53:30;3.92;;;2.03;;
13733;SDS011;43298;52.560;13.508;2023-08-21T07:55:56;3.22;;;2.20;;
13733;SDS011;43298;52.560;13.508;2023-08-21T07:58:23;2.55;;;2.05;;
13733;SDS011;43298;52.560;13.508;2023-08-21T08:00:49;5.18;;;2.05;;
13733;SDS011;43298;52.560;13.508;2023-08-21T08:03:15;2.40;;;1.40;;
13733;SDS011;43298;52.560;13.508;2023-08-21T08:05:41;3.35;;;2.15;;
13733;SDS011;43298;52.560;13.508;2023-08-21T08:08:07;2.20;;;1.85;;
13733;SDS011;43298;52.560;13.508;2023-08-21T08:10:40;3.33;;;2.00;;
13733;SDS011;43298;52.560;13.508;2023-08-21T08:13:06;6.90;;;2.00;;
13733;SDS011;43298;52.560;13.508;2023-08-21T08:15:32;2.90;;;1.67;;
13733;SDS011;43298;52.560;13.508;2023-08-21T08:18:00;1.52;;;1.42;;
13733;SDS011;43298;52.560;13.508;2023-08-21T08:20:27;2.50;;;1.60;;
13733;SDS011;43298;52.560;13.508;2023-08-21T08:22:53;1.35;;;1.17;;
13733;SDS011;43298;52.560;13.508;2023-08-21T08:25:19;1.38;;;1.15;;
13733;SDS011;43298;52.560;13.508;2023-08-21T08:27:45;4.78;;;1.85;;
13733;SDS011;43298;52.560;13.508;2023-08-21T08:30:11;10.18;;;1.92;;
13733;SDS011;43298;52.560;13.508;2023-08-21T08:32:37;5.40;;;1.70;;
13733;SDS011;43298;52.560;13.508;2023-08-21T08:35:05;3.10;;;1.70;;
13733;SDS011;43298;52.560;13.508;2023-08-21T08:37:32;2.53;;;1.73;;
13733;SDS011;43298;52.560;13.508;2023-08-21T08:39:58;1.45;;;1.20;;
13733;SDS011;43298;52.560;13.508;2023-08-21T08:42:24;1.92;;;1.70;;
13733;SDS011;43298;52.560;13.508;2023-08-21T08:44:50;2.00;;;1.63;;
13733;SDS011;43298;52.560;13.508;2023-08-21T08:47:19;1.45;;;1.08;;
13733;SDS011;43298;52.560;13.508;2023-08-21T08:49:47;2.53;;;1.40;;
13733;SDS011;43298;52.560;13.508;2023-08-21T08:52:14;1.88;;;1.55;;
13733;SDS011;43298;52.560;13.508;2023-08-21T08:54:42;3.28;;;1.20;;
13733;SDS011;43298;52.560;13.508;2023-08-21T08:57:09;1.77;;;1.00;;
13733;SDS011;43298;52.560;13.508;2023-08-21T08:59:35;5.00;;;1.20;;
13733;SDS011;43298;52.560;13.508;2023-08-21T09:02:01;8.55;;;1.27;;
13733;SDS011;43298;52.560;13.508;2023-08-21T09:04:27;1.25;;;1.15;;
13733;SDS011;43298;52.560;13.508;2023-08-21T09:07:05;2.30;;;1.00;;
13733;SDS011;43298;52.560;13.508;2023-08-21T09:09:40;2.15;;;0.75;;
13733;SDS011;43298;52.560;13.508;2023-08-21T09:12:10;0.43;;;0.43;;
13733;SDS011;43298;52.560;13.508;2023-08-21T09:14:40;1.10;;;0.80;;
13733;SDS011;43298;52.560;13.508;2023-08-21T09:17:08;1.10;;;0.77;;
13733;SDS011;43298;52.560;13.508;2023-08-21T09:19:34;0.90;;;0.60;;
13733;SDS011;43298;52.560;13.508;2023-08-21T09:22:07;0.90;;;0.70;;
13733;SDS011;43298;52.560;13.508;2023-08-21T09:24:41;0.93;;;0.80;;
13733;SDS011;43298;52.560;13.508;2023-08-21T09:27:36;0.80;;;0.57;;
13733;SDS011;43298;52.560;13.508;2023-08-21T09:30:04;2.03;;;0.30;;
13733;SDS011;43298;52.560;13.508;2023-08-21T09:35:20;0.50;;;0.50;;
13733;SDS011;43298;52.560;13.508;2023-08-21T09:37:46;0.85;;;0.77;;
13733;SDS011;43298;52.560;13.508;2023-08-21T09:40:12;0.80;;;0.60;;
13733;SDS011;43298;52.560;13.508;2023-08-21T09:42:40;0.65;;;0.65;;
13733;SDS011;43298;52.560;13.508;2023-08-21T09:45:06;0.60;;;0.60;;
13733;SDS011;43298;52.560;13.508;2023-08-21T09:47:32;0.77;;;0.77;;
13733;SDS011;43298;52.560;13.508;2023-08-21T09:49:59;1.00;;;0.73;;
13733;SDS011;43298;52.560;13.508;2023-08-21T09:52:25;2.55;;;0.80;;
13733;SDS011;43298;52.560;13.508;2023-08-21T09:54:53;1.33;;;0.70;;
13733;SDS011;43298;52.560;13.508;2023-08-21T09:57:22;0.90;;;0.90;;
13733;SDS011;43298;52.560;13.508;2023-08-21T09:59:53;0.95;;;0.90;;
13733;SDS011;43298;52.560;13.508;2023-08-21T10:02:20;5.68;;;1.02;;
13733;SDS011;43298;52.560;13.508;2023-08-21T10:04:47;0.95;;;0.75;;
13733;SDS011;43298;52.560;13.508;2023-08-21T10:07:15;1.13;;;1.02;;
13733;SDS011;43298;52.560;13.508;2023-08-21T10:09:45;1.05;;;0.80;;
13733;SDS011;43298;52.560;13.508;2023-08-21T10:12:13;1.13;;;0.50;;
13733;SDS011;43298;52.560;13.508;2023-08-21T10:14:41;2.53;;;0.77;;
13733;SDS011;43298;52.560;13.508;2023-08-21T10:17:08;0.88;;;0.50;;
13733;SDS011;43298;52.560;13.508;2023-08-21T10:19:37;1.08;;;0.75;;
13733;SDS011;43298;52.560;13.508;2023-08-21T10:22:02;0.55;;;0.55;;
13733;SDS011;43298;52.560;13.508;2023-08-21T10:24:33;1.10;;;0.55;;
13733;SDS011;43298;52.560;13.508;2023-08-21T10:27:06;0.60;;;0.50;;
13733;SDS011;43298;52.560;13.508;2023-08-21T10:29:32;5.35;;;0.82;;
13733;SDS011;43298;52.560;13.508;2023-08-21T10:31:59;1.05;;;0.60;;
13733;SDS011;43298;52.560;13.508;2023-08-21T10:34:36;0.80;;;0.70;;
13733;SDS011;43298;52.560;13.508;2023-08-21T10:37:03;0.40;;;0.40;;
13733;SDS011;43298;52.560;13.508;2023-08-21T10:39:31;0.98;;;0.50;;
13733;SDS011;43298;52.560;13.508;2023-08-21T10:42:10;0.73;;;0.60;;
13733;SDS011;43298;52.560;13.508;2023-08-21T10:47:14;1.02;;;0.70;;
13733;SDS011;43298;52.560;13.508;2023-08-21T10:49:49;0.80;;;0.55;;
13733;SDS011;43298;52.560;13.508;2023-08-21T10:52:20;2.28;;;0.50;;
13733;SDS011;43298;52.560;13.508;2023-08-21T10:54:54;0.55;;;0.52;;
13733;SDS011;43298;52.560;13.508;2023-08-21T10:57:29;0.80;;;0.80;;
13733;SDS011;43298;52.560;13.508;2023-08-21T10:59:58;1.55;;;0.65;;
13733;SDS011;43298;52.560;13.508;2023-08-21T11:02:29;0.98;;;0.73;;
13733;SDS011;43298;52.560;13.508;2023-08-21T11:04:57;0.82;;;0.70;;
13733;SDS011;43298;52.560;13.508;2023-08-21T11:07:26;1.17;;;0.70;;
13733;SDS011;43298;52.560;13.508;2023-08-21T11:09:53;1.00;;;0.75;;
13733;SDS011;43298;52.560;13.508;2023-08-21T11:12:20;0.60;;;0.60;;
13733;SDS011;43298;52.560;13.508;2023-08-21T11:14:48;3.80;;;1.05;;
13733;SDS011;43298;52.560;13.508;2023-08-21T11:17:14;0.75;;;0.60;;
13733;SDS011;43298;52.560;13.508;2023-08-21T11:19:41;1.63;;;0.90;;
13733;SDS011;43298;52.560;13.508;2023-08-21T11:22:07;1.65;;;0.75;;
13733;SDS011;43298;52.560;13.508;2023-08-21T11:27:03;0.88;;;0.80;;
13733;SDS011;43298;52.560;13.508;2023-08-21T11:29:36;1.23;;;0.80;;
13733;SDS011;43298;52.560;13.508;2023-08-21T11:32:16;1.02;;;0.60;;
13733;SDS011;43298;52.560;13.508;2023-08-21T11:34:47;1.95;;;1.00;;
13733;SDS011;43298;52.560;13.508;2023-08-21T11:37:16;0.77;;;0.70;;
13733;SDS011;43298;52.560;13.508;2023-08-21T11:39:48;0.85;;;0.70;;
13733;SDS011;43298;52.560;13.508;2023-08-21T11:42:20;1.42;;;0.60;;
13733;SDS011;43298;52.560;13.508;2023-08-21T11:44:53;0.65;;;0.65;;
13733;SDS011;43298;52.560;13.508;2023-08-21T11:47:20;3.33;;;1.02;;
13733;SDS011;43298;52.560;13.508;2023-08-21T11:49:48;0.98;;;0.68;;
13733;SDS011;43298;52.560;13.508;2023-08-21T11:52:21;1.35;;;0.88;;
13733;SDS011;43298;52.560;13.508;2023-08-21T11:54:52;4.40;;;0.70;;
13733;SDS011;43298;52.560;13.508;2023-08-21T11:57:20;0.95;;;0.90;;
13733;SDS011;43298;52.560;13.508;2023-08-21T11:59:54;1.92;;;1.10;;
13733;SDS011;43298;52.560;13.508;2023-08-21T12:02:27;5.18;;;0.80;;
13733;SDS011;43298;52.560;13.508;2023-08-21T12:07:30;1.60;;;0.70;;
13733;SDS011;43298;52.560;13.508;2023-08-21T12:09:59;1.38;;;0.85;;
13733;SDS011;43298;52.560;13.508;2023-08-21T12:12:25;0.70;;;0.70;;
13733;SDS011;43298;52.560;13.508;2023-08-21T12:14:51;1.10;;;0.73;;
13733;SDS011;43298;52.560;13.508;2023-08-21T12:17:17;0.57;;;0.57;;
13733;SDS011;43298;52.560;13.508;2023-08-21T12:19:43;1.15;;;0.60;;
13733;SDS011;43298;52.560;13.508;2023-08-21T12:22:09;1.08;;;0.63;;
13733;SDS011;43298;52.560;13.508;2023-08-21T12:24:35;0.70;;;0.50;;
13733;SDS011;43298;52.560;13.508;2023-08-21T12:27:06;5.50;;;0.82;;
13733;SDS011;43298;52.560;13.508;2023-08-21T12:29:33;0.47;;;0.47;;
13733;SDS011;43298;52.560;13.508;2023-08-21T12:32:00;0.60;;;0.60;;
13733;SDS011;43298;52.560;13.508;2023-08-21T12:34:25;0.52;;;0.50;;
13733;SDS011;43298;52.560;13.508;2023-08-21T12:36:51;0.40;;;0.40;;
13733;SDS011;43298;52.560;13.508;2023-08-21T12:39:17;0.88;;;0.60;;
13733;SDS011;43298;52.560;13.508;2023-08-21T12:41:43;0.52;;;0.52;;
13733;SDS011;43298;52.560;13.508;2023-08-21T12:44:11;0.80;;;0.70;;
13733;SDS011;43298;52.560;13.508;2023-08-21T12:46:37;0.55;;;0.50;;
13733;SDS011;43298;52.560;13.508;2023-08-21T12:49:03;1.92;;;0.80;;
13733;SDS011;43298;52.560;13.508;2023-08-21T12:51:29;1.50;;;0.68;;
13733;SDS011;43298;52.560;13.508;2023-08-21T12:53:55;2.40;;;0.82;;
13733;SDS011;43298;52.560;13.508;2023-08-21T12:56:21;1.00;;;0.90;;
13733;SDS011;43298;52.560;13.508;2023-08-21T12:58:47;1.77;;;0.70;;
13733;SDS011;43298;52.560;13.508;2023-08-21T13:01:13;0.80;;;0.80;;
13733;SDS011;43298;52.560;13.508;2023-08-21T13:03:43;0.90;;;0.90;;
13733;SDS011;43298;52.560;13.508;2023-08-21T13:06:12;0.77;;;0.70;;
13733;SDS011;43298;52.560;13.508;2023-08-21T13:08:39;1.75;;;0.93;;
13733;SDS011;43298;52.560;13.508;2023-08-21T13:11:05;2.85;;;1.00;;
13733;SDS011;43298;52.560;13.508;2023-08-21T13:13:32;1.45;;;0.60;;
13733;SDS011;43298;52.560;13.508;2023-08-21T13:15:59;0.40;;;0.40;;
13733;SDS011;43298;52.560;13.508;2023-08-21T13:18:25;1.58;;;0.75;;
13733;SDS011;43298;52.560;13.508;2023-08-21T13:20:52;0.80;;;0.80;;
13733;SDS011;43298;52.560;13.508;2023-08-21T13:23:18;2.70;;;0.55;;
13733;SDS011;43298;52.560;13.508;2023-08-21T13:25:43;1.00;;;0.70;;
13733;SDS011;43298;52.560;13.508;2023-08-21T13:28:09;1.13;;;0.80;;
13733;SDS011;43298;52.560;13.508;2023-08-21T13:30:36;0.75;;;0.60;;
13733;SDS011;43298;52.560;13.508;2023-08-21T13:33:02;1.98;;;0.75;;
13733;SDS011;43298;52.560;13.508;2023-08-21T13:35:29;2.25;;;0.70;;
13733;SDS011;43298;52.560;13.508;2023-08-21T13:37:56;0.93;;;0.60;;
13733;SDS011;43298;52.560;13.508;2023-08-21T13:40:23;0.43;;;0.43;;
13733;SDS011;43298;52.560;13.508;2023-08-21T13:42:50;0.32;;;0.32;;
13733;SDS011;43298;52.560;13.508;2023-08-21T13:45:17;3.47;;;0.73;;
13733;SDS011;43298;52.560;13.508;2023-08-21T13:47:45;0.57;;;0.43;;
13733;SDS011;43298;52.560;13.508;2023-08-21T13:50:13;0.40;;;0.40;;
13733;SDS011;43298;52.560;13.508;2023-08-21T13:52:41;0.70;;;0.70;;
13733;SDS011;43298;52.560;13.508;2023-08-21T13:55:08;3.15;;;0.80;;
13733;SDS011;43298;52.560;13.508;2023-08-21T13:57:35;0.70;;;0.60;;
13733;SDS011;43298;52.560;13.508;2023-08-21T14:00:05;0.50;;;0.50;;
13733;SDS011;43298;52.560;13.508;2023-08-21T14:02:36;0.63;;;0.50;;
13733;SDS011;43298;52.560;13.508;2023-08-21T14:05:03;0.30;;;0.30;;
13733;SDS011;43298;52.560;13.508;2023-08-21T14:07:30;0.50;;;0.50;;
13733;SDS011;43298;52.560;13.508;2023-08-21T14:09:57;1.70;;;0.80;;
13733;SDS011;43298;52.560;13.508;2023-08-21T14:12:23;0.40;;;0.40;;
13733;SDS011;43298;52.560;13.508;2023-08-21T14:14:49;2.40;;;0.60;;
13733;SDS011;43298;52.560;13.508;2023-08-21T14:17:15;0.40;;;0.40;;
13733;SDS011;43298;52.560;13.508;2023-08-21T14:19:41;0.82;;;0.77;;
13733;SDS011;43298;52.560;13.508;2023-08-21T14:22:07;4.93;;;0.88;;
13733;SDS011;43298;52.560;13.508;2023-08-21T14:24:33;0.52;;;0.52;;
13733;SDS011;43298;52.560;13.508;2023-08-21T14:26:59;0.90;;;0.75;;
13733;SDS011;43298;52.560;13.508;2023-08-21T14:29:25;1.98;;;0.60;;
13733;SDS011;43298;52.560;13.508;2023-08-21T14:31:50;2.17;;;1.02;;
13733;SDS011;43298;52.560;13.508;2023-08-21T14:34:18;0.77;;;0.60;;
13733;SDS011;43298;52.560;13.508;2023-08-21T14:36:45;1.10;;;0.50;;
13733;SDS011;43298;52.560;13.508;2023-08-21T14:39:13;0.60;;;0.60;;
13733;SDS011;43298;52.560;13.508;2023-08-21T14:41:42;1.55;;;0.60;;
13733;SDS011;43298;52.560;13.508;2023-08-21T14:44:09;0.60;;;0.45;;
13733;SDS011;43298;52.560;13.508;2023-08-21T14:46:35;1.85;;;0.60;;
13733;SDS011;43298;52.560;13.508;2023-08-21T14:49:01;0.40;;;0.40;;